createdAt,value
2023-02-14T00:00:00.328Z,14.4
2023-02-14T00:01:09.068Z,14.4
2023-02-14T00:02:00.278Z,14.4
2023-02-14T00:03:00.329Z,14.4
2023-02-14T00:04:00.384Z,14.4
2023-02-14T00:05:00.397Z,13.3
2023-02-14T00:06:04.661Z,13.3
2023-02-14T00:07:00.275Z,13.3
2023-02-14T00:08:00.306Z,13.3
2023-02-14T00:09:01.370Z,13.3
2023-02-14T00:10:00.315Z,14.0
2023-02-14T00:11:01.271Z,14.0
2023-02-14T00:12:00.510Z,14.0
2023-02-14T00:13:00.321Z,14.0
2023-02-14T00:14:00.371Z,14.0
2023-02-14T00:15:00.634Z,14.4
2023-02-14T00:16:00.377Z,14.4
2023-02-14T00:17:00.413Z,14.4
2023-02-14T00:18:00.329Z,14.4
2023-02-14T00:19:00.363Z,14.4
2023-02-14T00:20:00.349Z,15.1
2023-02-14T00:21:00.626Z,15.1
2023-02-14T00:22:00.784Z,15.1
2023-02-14T00:23:00.300Z,15.1
2023-02-14T00:24:00.796Z,15.1
2023-02-14T00:25:00.314Z,13.6
2023-02-14T00:26:00.292Z,13.6
2023-02-14T00:27:00.310Z,13.6
2023-02-14T00:28:00.299Z,13.6
2023-02-14T00:29:00.297Z,13.6
2023-02-14T00:30:00.610Z,13.7
2023-02-14T00:31:01.283Z,13.7
2023-02-14T00:32:00.909Z,13.7
2023-02-14T00:33:00.402Z,13.7
2023-02-14T00:34:00.983Z,13.7
2023-02-14T00:35:00.312Z,13.4
2023-02-14T00:36:03.558Z,13.4
2023-02-14T00:37:00.289Z,13.4
2023-02-14T00:38:00.279Z,13.4
2023-02-14T00:39:03.388Z,13.4
2023-02-14T00:40:00.325Z,14.2
2023-02-14T00:41:00.713Z,14.2
2023-02-14T00:42:00.283Z,14.2
2023-02-14T00:43:00.345Z,14.2
2023-02-14T00:44:00.699Z,14.2
2023-02-14T00:45:00.333Z,13.2
2023-02-14T00:46:00.421Z,13.2
2023-02-14T00:47:00.290Z,13.2
2023-02-14T00:48:00.301Z,13.2
2023-02-14T00:49:00.465Z,13.2
2023-02-14T00:50:00.297Z,13.9
2023-02-14T00:51:00.695Z,13.9
2023-02-14T00:52:00.332Z,13.9
2023-02-14T00:53:00.288Z,13.9
2023-02-14T00:54:00.291Z,13.9
2023-02-14T00:55:00.325Z,14.0
2023-02-14T00:56:00.376Z,14.0
2023-02-14T00:57:00.281Z,14.0
2023-02-14T00:58:00.297Z,14.0
2023-02-14T00:59:00.323Z,14.0
2023-02-14T01:00:00.348Z,14.0
2023-02-14T01:01:00.742Z,14.0
2023-02-14T01:02:00.334Z,14.0
2023-02-14T01:03:00.304Z,14.0
2023-02-14T01:04:00.346Z,14.0
2023-02-14T01:05:00.288Z,13.9
2023-02-14T01:06:00.913Z,13.9
2023-02-14T01:07:00.340Z,13.9
2023-02-14T01:08:00.370Z,13.9
2023-02-14T01:09:00.329Z,13.9
2023-02-14T01:10:00.307Z,14.3
2023-02-14T01:11:08.801Z,14.3
2023-02-14T01:12:00.281Z,14.3
2023-02-14T01:13:00.305Z,14.3
2023-02-14T01:14:00.773Z,14.3
2023-02-14T01:15:00.296Z,14.8
2023-02-14T01:16:05.372Z,14.8
2023-02-14T01:17:00.296Z,14.8
2023-02-14T01:18:00.303Z,14.8
2023-02-14T01:19:00.305Z,14.8
2023-02-14T01:20:00.316Z,14.1
2023-02-14T01:21:13.532Z,14.1
2023-02-14T01:22:00.283Z,14.1
2023-02-14T01:23:00.457Z,14.1
2023-02-14T01:24:02.976Z,14.1
2023-02-14T01:25:00.310Z,14.6
2023-02-14T01:26:03.173Z,14.6
2023-02-14T01:27:00.341Z,14.6
2023-02-14T01:28:00.283Z,14.6
2023-02-14T01:29:01.025Z,14.6
2023-02-14T01:30:00.545Z,13.9
2023-02-14T01:31:05.989Z,13.9
2023-02-14T01:32:00.482Z,13.9
2023-02-14T01:33:00.312Z,13.9
2023-02-14T01:34:00.815Z,13.9
2023-02-14T01:35:00.670Z,14.2
2023-02-14T01:36:00.369Z,14.2
2023-02-14T01:37:00.330Z,14.2
2023-02-14T01:38:00.296Z,14.2
2023-02-14T01:39:03.665Z,14.2
2023-02-14T01:40:00.676Z,14.7
2023-02-14T01:41:00.729Z,14.7
2023-02-14T01:42:00.510Z,14.7
2023-02-14T01:43:00.358Z,14.7
2023-02-14T01:44:13.502Z,14.7
2023-02-14T01:45:03.412Z,14.2
2023-02-14T01:46:00.342Z,14.2
2023-02-14T01:47:03.823Z,14.2
2023-02-14T01:48:00.308Z,14.2
2023-02-14T01:49:07.463Z,14.2
2023-02-14T01:50:07.010Z,13.6
2023-02-14T01:51:00.810Z,13.6
2023-02-14T01:52:05.539Z,13.6
2023-02-14T01:53:05.793Z,13.6
2023-02-14T01:54:01.225Z,13.6
2023-02-14T01:55:05.326Z,14.3
2023-02-14T01:56:07.003Z,14.3
2023-02-14T01:57:06.220Z,14.3
2023-02-14T01:58:09.604Z,14.3
2023-02-14T01:59:04.507Z,14.3
2023-02-14T02:00:01.382Z,13.4
2023-02-14T02:01:02.410Z,13.4
2023-02-14T02:02:00.957Z,13.4
2023-02-14T02:03:03.207Z,13.4
2023-02-14T02:04:07.460Z,13.4
2023-02-14T02:05:00.326Z,13.0
2023-02-14T02:06:16.143Z,13.0
2023-02-14T02:07:05.682Z,13.0
2023-02-14T02:08:00.705Z,13.0
2023-02-14T02:09:15.481Z,13.0
2023-02-14T02:10:03.347Z,13.6
2023-02-14T02:11:00.860Z,13.6
2023-02-14T02:12:01.978Z,13.6
2023-02-14T02:13:06.038Z,13.6
2023-02-14T02:14:02.129Z,13.6
2023-02-14T02:15:02.141Z,13.0
2023-02-14T02:16:09.889Z,13.0
2023-02-14T02:17:10.268Z,13.0
2023-02-14T02:18:10.246Z,13.0
2023-02-14T02:19:20.204Z,14.4
2023-02-14T02:20:11.266Z,14.4
2023-02-14T02:21:20.220Z,14.4
2023-02-14T02:22:17.664Z,14.4
2023-02-14T02:23:17.567Z,14.4
2023-02-14T02:24:12.991Z,14.4
2023-02-14T02:25:13.498Z,12.8
2023-02-14T02:26:11.275Z,12.8
2023-02-14T02:27:17.718Z,12.8
2023-02-14T02:28:03.526Z,12.8
2023-02-14T02:29:20.207Z,13.3
2023-02-14T02:30:11.407Z,13.3
2023-02-14T02:31:20.326Z,13.3
2023-02-14T02:32:10.527Z,13.3
2023-02-14T02:33:03.558Z,13.3
2023-02-14T02:34:10.242Z,13.3
2023-02-14T02:35:11.273Z,13.0
2023-02-14T02:36:10.839Z,13.0
2023-02-14T02:37:15.913Z,13.0
2023-02-14T02:38:13.496Z,13.0
2023-02-14T02:39:11.218Z,13.0
2023-02-14T02:40:14.454Z,12.2
2023-02-14T02:41:14.235Z,12.2
2023-02-14T02:42:13.502Z,12.2
2023-02-14T02:43:17.729Z,12.2
2023-02-14T02:44:15.388Z,12.6
2023-02-14T02:45:09.231Z,12.6
2023-02-14T02:46:05.283Z,12.6
2023-02-14T02:47:06.642Z,12.6
2023-02-14T02:48:08.892Z,12.6
2023-02-14T02:49:13.004Z,12.6
2023-02-14T02:50:11.438Z,12.3
2023-02-14T02:51:05.244Z,12.3
2023-02-14T02:52:03.475Z,12.3
2023-02-14T02:53:15.330Z,12.3
2023-02-14T02:54:11.719Z,12.3
2023-02-14T02:55:12.819Z,12.3
2023-02-14T02:56:04.093Z,12.3
2023-02-14T02:57:04.375Z,12.3
2023-02-14T02:58:00.806Z,12.3
2023-02-14T02:59:04.771Z,12.3
2023-02-14T03:00:03.078Z,12.3
2023-02-14T03:01:06.433Z,12.3
2023-02-14T03:02:13.258Z,12.3
2023-02-14T03:03:00.493Z,12.3
2023-02-14T03:04:07.075Z,12.3
2023-02-14T03:05:04.409Z,17.3
2023-02-14T03:06:01.476Z,17.3
2023-02-14T03:07:01.570Z,17.3
2023-02-14T03:08:00.334Z,17.3
2023-02-14T03:09:11.900Z,11.8
2023-02-14T03:10:12.053Z,11.8
2023-02-14T03:11:02.502Z,11.8
2023-02-14T03:12:11.297Z,11.8
2023-02-14T03:13:12.195Z,11.8
2023-02-14T03:14:10.717Z,12.2
2023-02-14T03:15:10.267Z,12.2
2023-02-14T03:16:13.615Z,12.2
2023-02-14T03:17:14.400Z,12.2
2023-02-14T03:18:20.197Z,12.2
2023-02-14T03:19:11.856Z,11.7
2023-02-14T03:20:15.709Z,11.7
2023-02-14T03:21:20.211Z,11.7
2023-02-14T03:22:20.235Z,11.7
2023-02-14T03:23:13.188Z,11.7
2023-02-14T03:24:18.261Z,12.4
2023-02-14T03:25:19.161Z,12.4
2023-02-14T03:26:15.940Z,12.4
2023-02-14T03:27:09.103Z,12.4
2023-02-14T03:28:12.404Z,12.4
2023-02-14T03:29:15.884Z,11.8
2023-02-14T03:30:10.280Z,11.8
2023-02-14T03:31:12.896Z,11.8
2023-02-14T03:32:14.439Z,11.8
2023-02-14T03:33:14.789Z,11.8
2023-02-14T03:34:09.358Z,12.6
2023-02-14T03:35:10.218Z,12.6
2023-02-14T03:36:09.868Z,12.6
2023-02-14T03:37:09.717Z,12.6
2023-02-14T03:38:10.392Z,12.6
2023-02-14T03:39:11.297Z,13.6
2023-02-14T03:40:13.833Z,13.6
2023-02-14T03:41:04.607Z,13.6
2023-02-14T03:42:11.853Z,13.6
2023-02-14T03:43:07.506Z,13.6
2023-02-14T03:44:04.364Z,13.6
2023-02-14T03:45:04.739Z,12.6
2023-02-14T03:46:06.200Z,12.6
2023-02-14T03:47:04.946Z,12.6
2023-02-14T03:48:06.687Z,12.6
2023-02-14T03:49:04.304Z,12.6
2023-02-14T03:50:08.074Z,12.4
2023-02-14T03:51:02.429Z,12.4
2023-02-14T03:52:02.971Z,12.4
2023-02-14T03:53:02.130Z,12.4
2023-02-14T03:54:03.525Z,12.1
2023-02-14T03:55:02.469Z,12.1
2023-02-14T03:56:09.466Z,12.1
2023-02-14T03:57:11.492Z,12.1
2023-02-14T03:58:09.526Z,12.1
2023-02-14T03:59:06.123Z,11.6
2023-02-14T04:00:00.354Z,11.6
2023-02-14T04:01:09.875Z,11.6
2023-02-14T04:02:08.267Z,11.6
2023-02-14T04:03:07.813Z,11.6
2023-02-14T04:04:03.517Z,12.1
2023-02-14T04:05:04.298Z,12.1
2023-02-14T04:06:00.460Z,12.1
2023-02-14T04:07:08.772Z,12.1
2023-02-14T04:08:00.321Z,12.1
2023-02-14T04:09:00.340Z,12.1
2023-02-14T04:10:00.352Z,11.8
2023-02-14T04:11:02.861Z,11.8
2023-02-14T04:12:00.315Z,11.8
2023-02-14T04:13:00.463Z,11.8
2023-02-14T04:14:00.943Z,11.8
2023-02-14T04:15:00.351Z,11.8
2023-02-14T04:16:00.439Z,11.8
2023-02-14T04:17:00.599Z,11.8
2023-02-14T04:18:00.364Z,11.8
2023-02-14T04:19:00.337Z,11.2
2023-02-14T04:20:00.319Z,11.2
2023-02-14T04:21:00.689Z,11.2
2023-02-14T04:22:00.319Z,11.2
2023-02-14T04:23:02.970Z,11.2
2023-02-14T04:24:00.273Z,11.9
2023-02-14T04:25:00.336Z,11.9
2023-02-14T04:26:00.332Z,11.9
2023-02-14T04:27:00.379Z,11.9
2023-02-14T04:28:00.322Z,11.9
2023-02-14T04:29:00.326Z,11.4
2023-02-14T04:30:00.402Z,11.4
2023-02-14T04:31:03.078Z,11.4
2023-02-14T04:32:00.444Z,11.4
2023-02-14T04:33:00.480Z,11.4
2023-02-14T04:34:00.320Z,11.5
2023-02-14T04:35:00.298Z,11.5
2023-02-14T04:36:00.339Z,11.5
2023-02-14T04:37:00.329Z,11.5
2023-02-14T04:38:00.984Z,11.5
2023-02-14T04:39:00.319Z,11.8
2023-02-14T04:40:00.322Z,11.8
2023-02-14T04:41:00.750Z,11.8
2023-02-14T04:42:01.361Z,11.8
2023-02-14T04:43:00.317Z,11.8
2023-02-14T04:44:00.297Z,11.7
2023-02-14T04:45:02.530Z,11.7
2023-02-14T04:46:00.278Z,11.7
2023-02-14T04:47:00.636Z,11.7
2023-02-14T04:48:00.376Z,11.7
2023-02-14T04:49:00.307Z,11.8
2023-02-14T04:50:00.279Z,11.8
2023-02-14T04:51:00.637Z,11.8
2023-02-14T04:52:00.428Z,11.8
2023-02-14T04:53:00.515Z,11.8
2023-02-14T04:54:00.316Z,12.0
2023-02-14T04:55:00.320Z,12.0
2023-02-14T04:56:00.275Z,12.0
2023-02-14T04:57:00.296Z,12.0
2023-02-14T04:58:00.330Z,12.0
2023-02-14T04:59:00.361Z,11.9
2023-02-14T05:00:00.570Z,11.9
2023-02-14T05:01:00.757Z,11.9
2023-02-14T05:02:00.453Z,11.9
2023-02-14T05:03:00.321Z,11.9
2023-02-14T05:04:00.580Z,12.0
2023-02-14T05:05:00.315Z,12.0
2023-02-14T05:06:00.281Z,12.0
2023-02-14T05:07:00.322Z,12.0
2023-02-14T05:08:00.309Z,12.0
2023-02-14T05:09:01.127Z,12.0
2023-02-14T05:10:00.340Z,12.0
2023-02-14T05:11:00.609Z,12.0
2023-02-14T05:12:00.341Z,12.0
2023-02-14T05:13:00.406Z,12.0
2023-02-14T05:14:00.342Z,11.2
2023-02-14T05:15:00.385Z,11.2
2023-02-14T05:16:00.547Z,11.2
2023-02-14T05:17:00.277Z,11.2
2023-02-14T05:18:00.369Z,11.2
2023-02-14T05:19:00.282Z,12.6
2023-02-14T05:20:00.281Z,12.6
2023-02-14T05:21:00.646Z,12.6
2023-02-14T05:22:00.314Z,12.6
2023-02-14T05:23:00.328Z,12.6
2023-02-14T05:24:00.320Z,12.3
2023-02-14T05:25:00.275Z,12.3
2023-02-14T05:26:00.325Z,12.3
2023-02-14T05:27:00.338Z,12.3
2023-02-14T05:28:00.295Z,12.3
2023-02-14T05:29:00.320Z,12.5
2023-02-14T05:30:00.437Z,12.5
2023-02-14T05:31:00.826Z,12.5
2023-02-14T05:32:00.316Z,12.5
2023-02-14T05:33:00.591Z,12.5
2023-02-14T05:34:00.499Z,12.1
2023-02-14T05:35:01.293Z,12.1
2023-02-14T05:36:00.583Z,12.1
2023-02-14T05:37:00.337Z,12.1
2023-02-14T05:38:00.385Z,12.1
2023-02-14T05:39:00.338Z,12.4
2023-02-14T05:40:00.283Z,12.4
2023-02-14T05:41:01.292Z,12.4
2023-02-14T05:42:00.316Z,12.4
2023-02-14T05:43:00.336Z,12.4
2023-02-14T05:44:00.265Z,12.1
2023-02-14T05:45:01.038Z,12.1
2023-02-14T05:46:00.424Z,12.1
2023-02-14T05:47:00.274Z,12.1
2023-02-14T05:48:00.289Z,12.1
2023-02-14T05:49:00.291Z,13.2
2023-02-14T05:50:00.324Z,13.2
2023-02-14T05:51:08.942Z,13.2
2023-02-14T05:52:00.329Z,13.2
2023-02-14T05:53:00.367Z,13.2
2023-02-14T05:54:00.340Z,12.9
2023-02-14T05:55:00.288Z,12.9
2023-02-14T05:56:00.350Z,12.9
2023-02-14T05:57:00.346Z,12.9
2023-02-14T05:58:00.367Z,12.9
2023-02-14T05:59:00.335Z,12.9
2023-02-14T06:00:00.697Z,12.9
2023-02-14T06:01:00.687Z,12.9
2023-02-14T06:02:00.371Z,12.9
2023-02-14T06:03:00.367Z,12.9
2023-02-14T06:04:00.680Z,12.6
2023-02-14T06:05:00.340Z,12.6
2023-02-14T06:06:00.386Z,12.6
2023-02-14T06:07:00.281Z,12.6
2023-02-14T06:08:00.417Z,12.6
2023-02-14T06:09:00.306Z,12.5
2023-02-14T06:10:00.315Z,12.5
2023-02-14T06:11:00.533Z,12.5
2023-02-14T06:12:00.278Z,12.5
2023-02-14T06:13:00.471Z,12.5
2023-02-14T06:14:00.339Z,12.5
2023-02-14T06:15:00.372Z,12.5
2023-02-14T06:16:02.523Z,12.5
2023-02-14T06:17:00.517Z,12.5
2023-02-14T06:18:01.243Z,12.5
2023-02-14T06:19:00.371Z,12.9
2023-02-14T06:20:00.373Z,12.9
2023-02-14T06:21:00.716Z,12.9
2023-02-14T06:22:00.440Z,12.9
2023-02-14T06:23:00.560Z,12.9
2023-02-14T06:24:00.349Z,12.9
2023-02-14T06:25:00.314Z,12.9
2023-02-14T06:26:00.397Z,12.9
2023-02-14T06:27:00.617Z,12.9
2023-02-14T06:28:00.376Z,12.9
2023-02-14T06:29:01.760Z,12.6
2023-02-14T06:30:00.485Z,12.6
2023-02-14T06:31:00.809Z,12.6
2023-02-14T06:32:00.442Z,12.6
2023-02-14T06:33:00.309Z,12.6
2023-02-14T06:34:00.386Z,13.0
2023-02-14T06:35:00.721Z,13.0
2023-02-14T06:36:00.274Z,13.0
2023-02-14T06:37:00.409Z,13.0
2023-02-14T06:38:00.294Z,13.0
2023-02-14T06:39:00.507Z,13.6
2023-02-14T06:40:00.330Z,13.6
2023-02-14T06:41:02.466Z,13.6
2023-02-14T06:42:00.310Z,13.6
2023-02-14T06:43:00.383Z,13.6
2023-02-14T06:44:00.332Z,13.5
2023-02-14T06:45:00.292Z,13.5
2023-02-14T06:46:00.812Z,13.5
2023-02-14T06:47:00.314Z,13.5
2023-02-14T06:48:00.283Z,13.5
2023-02-14T06:49:00.334Z,14.0
2023-02-14T06:50:00.287Z,14.0
2023-02-14T06:51:00.896Z,14.0
2023-02-14T06:52:00.320Z,14.0
2023-02-14T06:53:00.303Z,14.0
2023-02-14T06:54:00.480Z,13.2
2023-02-14T06:55:00.322Z,13.2
2023-02-14T06:56:00.367Z,13.2
2023-02-14T06:57:00.305Z,13.2
2023-02-14T06:58:00.316Z,13.2
2023-02-14T06:59:00.407Z,13.4
2023-02-14T07:00:00.404Z,13.4
2023-02-14T07:01:00.677Z,13.4
2023-02-14T07:02:00.482Z,13.4
2023-02-14T07:03:00.500Z,13.4
2023-02-14T07:04:00.592Z,13.0
2023-02-14T07:05:00.301Z,13.0
2023-02-14T07:06:00.337Z,13.0
2023-02-14T07:07:00.282Z,13.0
2023-02-14T07:08:00.426Z,13.0
2023-02-14T07:09:00.283Z,13.3
2023-02-14T07:10:00.302Z,13.3
2023-02-14T07:11:00.572Z,13.3
2023-02-14T07:12:00.386Z,13.3
2023-02-14T07:13:00.602Z,13.3
2023-02-14T07:14:00.378Z,13.6
2023-02-14T07:15:00.308Z,13.6
2023-02-14T07:16:00.410Z,13.6
2023-02-14T07:17:00.393Z,13.6
2023-02-14T07:18:00.394Z,13.6
2023-02-14T07:19:00.328Z,13.1
2023-02-14T07:20:00.490Z,13.1
2023-02-14T07:21:00.816Z,13.1
2023-02-14T07:22:00.332Z,13.1
2023-02-14T07:23:00.323Z,13.1
2023-02-14T07:24:00.422Z,13.6
2023-02-14T07:25:00.505Z,13.6
2023-02-14T07:26:00.708Z,13.6
2023-02-14T07:27:00.306Z,13.6
2023-02-14T07:28:00.457Z,13.6
2023-02-14T07:29:00.297Z,12.3
2023-02-14T07:30:00.377Z,12.3
2023-02-14T07:31:01.271Z,12.3
2023-02-14T07:32:00.460Z,12.3
2023-02-14T07:33:00.391Z,12.3
2023-02-14T07:34:00.405Z,11.9
2023-02-14T07:35:00.287Z,11.9
2023-02-14T07:36:04.135Z,11.9
2023-02-14T07:37:00.917Z,11.9
2023-02-14T07:38:00.383Z,11.9
2023-02-14T07:39:00.307Z,13.0
2023-02-14T07:40:02.737Z,13.0
2023-02-14T07:41:00.732Z,13.0
2023-02-14T07:42:00.414Z,13.0
2023-02-14T07:43:00.320Z,13.0
2023-02-14T07:44:00.334Z,12.9
2023-02-14T07:45:04.889Z,12.9
2023-02-14T07:46:01.143Z,12.9
2023-02-14T07:47:00.298Z,12.9
2023-02-14T07:48:00.342Z,12.9
2023-02-14T07:49:00.308Z,13.3
2023-02-14T07:50:00.308Z,13.3
2023-02-14T07:51:01.480Z,13.3
2023-02-14T07:52:00.723Z,13.3
2023-02-14T07:53:00.309Z,13.3
2023-02-14T07:54:00.421Z,13.2
2023-02-14T07:55:00.293Z,13.2
2023-02-14T07:56:00.311Z,13.2
2023-02-14T07:57:00.305Z,13.2
2023-02-14T07:58:00.465Z,13.2
2023-02-14T07:59:00.289Z,13.4
2023-02-14T08:00:00.413Z,13.4
2023-02-14T08:01:00.711Z,13.4
2023-02-14T08:02:00.616Z,13.4
2023-02-14T08:03:00.281Z,13.4
2023-02-14T08:04:00.464Z,13.0
2023-02-14T08:05:00.401Z,13.0
2023-02-14T08:06:00.396Z,13.0
2023-02-14T08:07:00.356Z,13.0
2023-02-14T08:08:00.674Z,13.0
2023-02-14T08:09:00.329Z,13.0
2023-02-14T08:10:00.460Z,13.0
2023-02-14T08:11:01.585Z,13.0
2023-02-14T08:12:00.296Z,13.0
2023-02-14T08:13:00.496Z,13.0
2023-02-14T08:14:00.398Z,13.1
2023-02-14T08:15:00.284Z,13.1
2023-02-14T08:16:00.448Z,13.1
2023-02-14T08:17:00.689Z,13.1
2023-02-14T08:18:00.295Z,13.1
2023-02-14T08:19:01.043Z,12.9
2023-02-14T08:20:00.297Z,12.9
2023-02-14T08:21:01.341Z,12.9
2023-02-14T08:22:00.300Z,12.9
2023-02-14T08:23:00.337Z,12.9
2023-02-14T08:24:00.448Z,13.3
2023-02-14T08:25:00.291Z,13.3
2023-02-14T08:26:00.426Z,13.3
2023-02-14T08:27:00.317Z,13.3
2023-02-14T08:28:02.324Z,13.3
2023-02-14T08:29:00.973Z,12.7
2023-02-14T08:30:00.375Z,12.7
2023-02-14T08:31:02.273Z,12.7
2023-02-14T08:32:00.604Z,12.7
2023-02-14T08:33:00.383Z,12.7
2023-02-14T08:34:00.396Z,12.8
2023-02-14T08:35:00.354Z,12.8
2023-02-14T08:36:00.306Z,12.8
2023-02-14T08:37:00.302Z,12.8
2023-02-14T08:38:00.813Z,12.8
2023-02-14T08:39:01.613Z,12.5
2023-02-14T08:40:00.289Z,12.5
2023-02-14T08:41:00.876Z,12.5
2023-02-14T08:42:00.282Z,12.5
2023-02-14T08:43:00.352Z,12.5
2023-02-14T08:44:00.417Z,12.3
2023-02-14T08:45:00.360Z,12.3
2023-02-14T08:46:00.706Z,12.3
2023-02-14T08:47:00.306Z,12.3
2023-02-14T08:48:01.189Z,12.3
2023-02-14T08:49:00.355Z,13.1
2023-02-14T08:50:02.019Z,13.1
2023-02-14T08:51:04.839Z,13.1
2023-02-14T08:52:00.312Z,13.1
2023-02-14T08:53:00.535Z,13.1
2023-02-14T08:54:00.295Z,12.5
2023-02-14T08:55:00.545Z,12.5
2023-02-14T08:56:03.150Z,12.5
2023-02-14T08:57:00.307Z,12.5
2023-02-14T08:58:00.826Z,12.5
2023-02-14T08:59:00.358Z,12.3
2023-02-14T09:00:00.639Z,12.3
2023-02-14T09:01:02.000Z,12.3
2023-02-14T09:02:00.413Z,12.3
2023-02-14T09:03:00.400Z,12.3
2023-02-14T09:04:00.550Z,11.8
2023-02-14T09:05:00.489Z,11.8
2023-02-14T09:06:02.976Z,11.8
2023-02-14T09:07:00.302Z,11.8
2023-02-14T09:08:01.015Z,11.8
2023-02-14T09:09:02.244Z,11.9
2023-02-14T09:10:00.302Z,11.9
2023-02-14T09:11:13.168Z,11.9
2023-02-14T09:12:05.781Z,11.9
2023-02-14T09:13:00.277Z,11.9
2023-02-14T09:14:00.342Z,11.4
2023-02-14T09:15:00.308Z,11.4
2023-02-14T09:16:05.428Z,11.4
2023-02-14T09:17:00.430Z,11.4
2023-02-14T09:18:00.298Z,11.4
2023-02-14T09:19:00.428Z,12.3
2023-02-14T09:20:00.654Z,12.3
2023-02-14T09:21:01.082Z,12.3
2023-02-14T09:22:00.853Z,12.3
2023-02-14T09:23:00.289Z,12.3
2023-02-14T09:24:00.314Z,12.3
2023-02-14T09:25:00.343Z,12.3
2023-02-14T09:26:02.854Z,12.3
2023-02-14T09:27:00.894Z,12.3
2023-02-14T09:28:00.301Z,12.3
2023-02-14T09:29:00.302Z,11.9
2023-02-14T09:30:00.486Z,11.9
2023-02-14T09:31:12.599Z,11.9
2023-02-14T09:32:01.096Z,11.9
2023-02-14T09:33:00.321Z,11.9
2023-02-14T09:34:02.441Z,12.2
2023-02-14T09:35:00.421Z,12.2
2023-02-14T09:36:00.472Z,12.2
2023-02-14T09:37:00.459Z,12.2
2023-02-14T09:38:00.319Z,12.2
2023-02-14T09:39:00.555Z,12.4
2023-02-14T09:40:00.286Z,12.4
2023-02-14T09:41:04.382Z,12.4
2023-02-14T09:42:10.277Z,12.4
2023-02-14T09:43:08.382Z,12.4
2023-02-14T09:44:06.702Z,10.3
2023-02-14T09:45:04.938Z,10.3
2023-02-14T09:46:01.097Z,10.3
2023-02-14T09:47:08.561Z,10.3
2023-02-14T09:48:16.880Z,10.9
2023-02-14T09:49:00.853Z,10.9
2023-02-14T09:50:03.730Z,10.9
2023-02-14T09:51:04.335Z,10.9
2023-02-14T09:52:02.850Z,10.9
2023-02-14T09:53:06.632Z,10.9
2023-02-14T09:54:10.329Z,11.1
2023-02-14T09:55:02.300Z,11.1
2023-02-14T09:56:20.189Z,11.1
2023-02-14T09:57:10.811Z,11.1
2023-02-14T09:58:06.137Z,11.1
2023-02-14T09:59:20.238Z,10.3
2023-02-14T10:00:15.487Z,10.3
2023-02-14T10:01:11.312Z,10.3
2023-02-14T10:02:10.245Z,10.3
2023-02-14T10:03:11.291Z,11.2
2023-02-14T10:04:10.242Z,11.2
2023-02-14T10:05:11.595Z,11.2
2023-02-14T10:06:13.547Z,11.2
2023-02-14T10:07:13.383Z,11.2
2023-02-14T10:08:20.195Z,10.2
2023-02-14T10:09:11.237Z,10.2
2023-02-14T10:10:17.584Z,10.2
2023-02-14T10:11:06.034Z,10.2
2023-02-14T10:12:01.025Z,10.2
2023-02-14T10:13:05.893Z,10.2
2023-02-14T10:14:10.328Z,11.6
2023-02-14T10:15:06.968Z,11.6
2023-02-14T10:16:10.671Z,11.6
2023-02-14T10:17:07.770Z,11.6
2023-02-14T10:18:06.967Z,11.5
2023-02-14T10:19:05.925Z,11.5
2023-02-14T10:20:04.098Z,11.5
2023-02-14T10:21:03.150Z,11.5
2023-02-14T10:22:09.054Z,11.5
2023-02-14T10:23:10.647Z,10.3
2023-02-14T10:24:09.690Z,10.3
2023-02-14T10:25:07.434Z,10.3
2023-02-14T10:26:06.864Z,10.3
2023-02-14T10:27:10.103Z,10.3
2023-02-14T10:28:01.011Z,10.3
2023-02-14T10:29:05.037Z,10.7
2023-02-14T10:30:01.284Z,10.7
2023-02-14T10:31:16.733Z,10.7
2023-02-14T10:32:03.103Z,10.7
2023-02-14T10:33:04.746Z,10.8
2023-02-14T10:34:08.284Z,10.8
2023-02-14T10:35:10.296Z,10.8
2023-02-14T10:36:04.081Z,10.8
2023-02-14T10:37:16.913Z,10.8
2023-02-14T10:38:11.661Z,9.8
2023-02-14T10:39:13.971Z,9.8
2023-02-14T10:40:11.268Z,9.8
2023-02-14T10:41:09.260Z,9.8
2023-02-14T10:42:02.297Z,9.8
2023-02-14T10:43:09.114Z,10.0
2023-02-14T10:44:16.057Z,10.0
2023-02-14T10:45:07.761Z,10.0
2023-02-14T10:46:10.296Z,10.0
2023-02-14T10:47:10.246Z,10.0
2023-02-14T10:48:10.243Z,10.1
2023-02-14T10:49:20.223Z,10.1
2023-02-14T10:50:10.581Z,10.1
2023-02-14T10:51:11.454Z,10.1
2023-02-14T10:52:14.521Z,10.1
2023-02-14T10:53:13.635Z,9.8
2023-02-14T10:54:11.246Z,9.8
2023-02-14T10:55:31.527Z,9.8
2023-02-14T10:56:04.781Z,9.8
2023-02-14T10:57:01.996Z,9.8
2023-02-14T10:58:02.847Z,10.4
2023-02-14T10:59:13.755Z,10.4
2023-02-14T11:00:04.766Z,10.4
2023-02-14T11:01:05.693Z,10.4
2023-02-14T11:02:01.157Z,10.4
2023-02-14T11:03:04.453Z,9.0
2023-02-14T11:04:02.633Z,9.0
2023-02-14T11:05:02.121Z,9.0
2023-02-14T11:06:00.297Z,9.0
2023-02-14T11:07:00.344Z,9.0
2023-02-14T11:08:00.810Z,9.2
2023-02-14T11:09:00.336Z,9.2
2023-02-14T11:10:00.630Z,9.2
2023-02-14T11:11:17.554Z,9.2
2023-02-14T11:12:00.672Z,9.2
2023-02-14T11:13:00.461Z,9.6
2023-02-14T11:14:18.304Z,9.6
2023-02-14T11:15:17.866Z,9.6
2023-02-14T11:16:03.349Z,9.6
2023-02-14T11:17:20.244Z,9.6
2023-02-14T11:18:19.558Z,9.4
2023-02-14T11:19:13.474Z,9.4
2023-02-14T11:20:03.191Z,9.4
2023-02-14T11:21:04.398Z,9.4
2023-02-14T11:22:00.823Z,9.4
2023-02-14T11:23:00.348Z,9.3
2023-02-14T11:24:11.187Z,9.3
2023-02-14T11:25:04.886Z,9.3
2023-02-14T11:26:02.480Z,9.3
2023-02-14T11:27:10.243Z,9.3
2023-02-14T11:28:03.787Z,8.9
2023-02-14T11:29:09.253Z,8.9
2023-02-14T11:30:00.449Z,8.9
2023-02-14T11:31:01.406Z,8.9
2023-02-14T11:32:20.188Z,8.9
2023-02-14T11:33:00.738Z,10.9
2023-02-14T11:34:05.053Z,10.9
2023-02-14T11:35:06.692Z,10.9
2023-02-14T11:36:03.766Z,10.9
2023-02-14T11:37:00.345Z,10.9
2023-02-14T11:38:04.581Z,13.4
2023-02-14T11:39:05.059Z,13.4
2023-02-14T11:40:00.740Z,13.4
2023-02-14T11:41:02.199Z,13.4
2023-02-14T11:42:03.009Z,13.4
2023-02-14T11:43:14.188Z,9.1
2023-02-14T11:44:14.423Z,9.1
2023-02-14T11:45:00.625Z,9.1
2023-02-14T11:46:06.238Z,9.1
2023-02-14T11:47:20.203Z,9.1
2023-02-14T11:48:22.304Z,8.0
2023-02-14T11:49:04.122Z,8.0
2023-02-14T11:50:04.866Z,8.0
2023-02-14T11:51:10.213Z,8.0
2023-02-14T11:52:10.327Z,8.0
2023-02-14T11:53:00.351Z,6.9
2023-02-14T11:54:02.405Z,6.9
2023-02-14T11:55:00.479Z,6.9
2023-02-14T11:56:00.523Z,6.9
2023-02-14T11:57:03.690Z,6.9
2023-02-14T11:58:03.420Z,6.1
2023-02-14T11:59:03.440Z,6.1
2023-02-14T12:00:03.769Z,6.1
2023-02-14T12:01:01.061Z,6.1
2023-02-14T12:02:13.032Z,6.1
2023-02-14T12:03:05.117Z,5.9
2023-02-14T12:04:04.377Z,5.9
2023-02-14T12:05:13.358Z,5.9
2023-02-14T12:06:00.436Z,5.9
2023-02-14T12:07:12.949Z,5.9
2023-02-14T12:08:03.956Z,6.2
2023-02-14T12:09:11.272Z,6.2
2023-02-14T12:10:07.822Z,6.2
2023-02-14T12:11:03.487Z,6.2
2023-02-14T12:12:02.676Z,6.2
2023-02-14T12:13:10.102Z,6.9
2023-02-14T12:14:00.279Z,6.9
2023-02-14T12:15:20.206Z,6.9
2023-02-14T12:16:00.368Z,6.9
2023-02-14T12:17:10.249Z,6.9
2023-02-14T12:18:20.302Z,7.0
2023-02-14T12:19:05.993Z,7.0
2023-02-14T12:20:13.512Z,7.0
2023-02-14T12:21:20.192Z,7.0
2023-02-14T12:22:04.370Z,7.0
2023-02-14T12:23:07.815Z,5.3
2023-02-14T12:24:15.312Z,5.3
2023-02-14T12:25:14.420Z,5.3
2023-02-14T12:26:05.389Z,5.3
2023-02-14T12:27:05.123Z,5.3
2023-02-14T12:28:08.459Z,8.4
2023-02-14T12:29:09.370Z,8.4
2023-02-14T12:30:05.600Z,8.4
2023-02-14T12:31:00.728Z,8.4
2023-02-14T12:32:10.225Z,8.4
2023-02-14T12:33:00.896Z,10.5
2023-02-14T12:34:02.194Z,10.5
2023-02-14T12:35:11.331Z,10.5
2023-02-14T12:36:17.737Z,10.5
2023-02-14T12:37:15.542Z,10.5
2023-02-14T12:38:14.567Z,7.8
2023-02-14T12:39:08.650Z,7.8
2023-02-14T12:40:10.638Z,7.8
2023-02-14T12:41:10.256Z,7.8
2023-02-14T12:42:20.205Z,7.8
2023-02-14T12:43:17.605Z,7.1
2023-02-14T12:44:12.092Z,7.1
2023-02-14T12:45:16.307Z,7.1
2023-02-14T12:46:07.706Z,7.1
2023-02-14T12:47:09.745Z,7.1
2023-02-14T12:48:20.205Z,7.3
2023-02-14T12:49:13.517Z,7.3
2023-02-14T12:50:11.267Z,7.3
2023-02-14T12:51:06.519Z,7.3
2023-02-14T12:52:11.274Z,7.3
2023-02-14T12:53:20.201Z,6.5
2023-02-14T12:54:12.168Z,6.5
2023-02-14T12:55:13.499Z,6.5
2023-02-14T12:56:08.600Z,6.5
2023-02-14T12:57:10.483Z,6.5
2023-02-14T12:58:10.416Z,6.9
2023-02-14T12:59:20.199Z,6.9
2023-02-14T13:00:13.515Z,6.9
2023-02-14T13:01:00.660Z,6.9
2023-02-14T13:02:20.267Z,6.9
2023-02-14T13:03:20.248Z,7.6
2023-02-14T13:04:20.216Z,7.6
2023-02-14T13:05:20.193Z,7.6
2023-02-14T13:06:10.240Z,7.6
2023-02-14T13:07:20.210Z,7.6
2023-02-14T13:08:13.492Z,6.9
2023-02-14T13:09:18.261Z,6.9
2023-02-14T13:10:12.885Z,6.9
2023-02-14T13:11:11.249Z,6.9
2023-02-14T13:12:09.214Z,6.9
2023-02-14T13:13:09.805Z,5.8
2023-02-14T13:14:11.255Z,5.8
2023-02-14T13:15:12.609Z,5.8
2023-02-14T13:16:04.610Z,5.8
2023-02-14T13:17:13.910Z,5.8
2023-02-14T13:18:04.629Z,6.3
2023-02-14T13:19:11.153Z,6.3
2023-02-14T13:20:17.752Z,6.3
2023-02-14T13:21:03.968Z,6.3
2023-02-14T13:22:01.173Z,6.3
2023-02-14T13:23:05.071Z,5.7